createdAt,value
2018-03-18T00:00:42.119Z,0.00
2018-03-18T00:01:42.106Z,0.00
2018-03-18T00:02:42.097Z,0.00
2018-03-18T00:03:42.084Z,0.00
2018-03-18T00:04:42.068Z,0.00
2018-03-18T00:05:42.073Z,0.00
2018-03-18T00:06:42.041Z,0.00
2018-03-18T00:07:42.032Z,0.00
2018-03-18T00:08:42.023Z,0.00
2018-03-18T00:09:42.018Z,0.00
2018-03-18T00:10:41.996Z,0.00
2018-03-18T00:11:42.050Z,0.00
2018-03-18T00:12:41.983Z,0.00
2018-03-18T00:13:41.959Z,0.00
2018-03-18T00:14:41.954Z,0.00
2018-03-18T00:15:41.936Z,0.00
2018-03-18T00:16:41.919Z,0.00
2018-03-18T00:17:41.905Z,0.00
2018-03-18T00:18:41.895Z,0.00
2018-03-18T00:19:41.886Z,0.00
2018-03-18T00:20:41.898Z,0.00
2018-03-18T00:21:41.864Z,0.00
2018-03-18T00:22:41.845Z,0.00
2018-03-18T00:23:41.838Z,0.00
2018-03-18T00:24:41.826Z,0.00
2018-03-18T00:25:41.812Z,0.00
2018-03-18T00:26:41.798Z,0.00
2018-03-18T00:27:41.785Z,0.00
2018-03-18T00:28:41.782Z,0.00
2018-03-18T00:29:41.815Z,0.00
2018-03-18T00:30:41.750Z,0.00
2018-03-18T00:31:41.735Z,0.00
2018-03-18T00:32:41.721Z,0.00
2018-03-18T00:33:41.709Z,0.00
2018-03-18T00:34:41.708Z,0.00
2018-03-18T00:35:41.691Z,0.00
2018-03-18T00:36:41.673Z,0.00
2018-03-18T00:37:41.663Z,0.00
2018-03-18T00:38:41.648Z,0.00
2018-03-18T00:39:41.635Z,0.00
2018-03-18T00:40:41.629Z,0.00
2018-03-18T00:41:41.679Z,0.00
2018-03-18T00:42:41.611Z,0.00
2018-03-18T00:43:41.588Z,0.00
2018-03-18T00:44:41.574Z,0.00
2018-03-18T00:45:41.561Z,0.00
2018-03-18T00:46:41.550Z,0.00
2018-03-18T00:47:41.538Z,0.00
2018-03-18T00:48:41.527Z,0.00
2018-03-18T00:49:41.509Z,0.00
2018-03-18T00:50:41.502Z,0.00
2018-03-18T00:51:41.486Z,0.00
2018-03-18T00:52:41.474Z,0.00
2018-03-18T00:53:41.466Z,0.00
2018-03-18T00:54:41.471Z,0.00
2018-03-18T00:55:41.439Z,0.00
2018-03-18T00:56:41.428Z,0.00
2018-03-18T00:57:41.416Z,0.00
2018-03-18T00:58:41.401Z,0.00
2018-03-18T00:59:41.431Z,0.00
2018-03-18T01:00:41.377Z,0.00
2018-03-18T01:01:41.367Z,0.00
2018-03-18T01:02:41.350Z,0.00
2018-03-18T01:03:41.380Z,0.00
2018-03-18T01:04:41.328Z,0.00
2018-03-18T01:05:41.319Z,0.00
2018-03-18T01:06:41.304Z,0.00
2018-03-18T01:07:41.291Z,0.00
2018-03-18T01:08:41.279Z,0.00
2018-03-18T01:09:41.265Z,0.00
2018-03-18T01:10:41.251Z,0.00
2018-03-18T01:11:41.239Z,0.00
2018-03-18T01:12:41.224Z,0.00
2018-03-18T01:13:41.217Z,0.00
2018-03-18T01:14:41.204Z,0.00
2018-03-18T01:15:41.190Z,0.00
2018-03-18T01:16:41.178Z,0.00
2018-03-18T01:17:41.167Z,0.00
2018-03-18T01:18:41.153Z,0.00
2018-03-18T01:19:41.145Z,0.00
2018-03-18T01:20:41.132Z,0.00
2018-03-18T01:21:41.122Z,0.00
2018-03-18T01:22:41.115Z,0.00
2018-03-18T01:23:41.097Z,0.00
2018-03-18T01:24:41.080Z,0.00
2018-03-18T01:25:41.067Z,0.00
2018-03-18T01:26:41.054Z,0.00
2018-03-18T01:27:41.043Z,0.00
2018-03-18T01:28:41.031Z,0.00
2018-03-18T01:29:41.051Z,0.00
2018-03-18T01:30:41.008Z,0.00
2018-03-18T01:31:40.995Z,0.00
2018-03-18T01:32:40.980Z,0.00
2018-03-18T01:33:40.971Z,0.00
2018-03-18T02:05:28.230Z,0.00
2018-03-18T02:06:28.188Z,0.00
2018-03-18T02:08:21.155Z,0.00
2018-03-18T02:09:21.132Z,0.00
2018-03-18T02:11:14.051Z,0.00
2018-03-18T02:12:14.016Z,0.00
2018-03-18T02:14:06.915Z,0.00
2018-03-18T02:15:06.888Z,0.00
2018-03-18T02:16:59.848Z,0.00
2018-03-18T02:17:59.812Z,0.00
2018-03-18T02:19:52.723Z,0.00
2018-03-18T02:20:52.736Z,0.00
2018-03-18T02:22:45.649Z,0.00
2018-03-18T02:23:45.619Z,0.00
2018-03-18T02:25:38.518Z,0.00
2018-03-18T02:26:38.488Z,0.00
2018-03-18T02:28:31.455Z,0.00
2018-03-18T02:29:31.434Z,0.00
2018-03-18T02:31:24.428Z,0.00
2018-03-18T02:32:24.395Z,0.00
2018-03-18T02:34:17.260Z,0.00
2018-03-18T02:35:17.245Z,0.00
2018-03-18T02:37:10.175Z,0.00
2018-03-18T02:38:10.145Z,0.00
2018-03-18T02:40:03.095Z,0.00
2018-03-18T02:41:03.043Z,0.00
2018-03-18T02:42:55.965Z,0.00
2018-03-18T02:43:55.932Z,0.00
2018-03-18T02:45:48.866Z,0.00
2018-03-18T02:46:48.837Z,0.00
2018-03-18T02:48:41.759Z,0.00
2018-03-18T02:49:41.739Z,0.00
2018-03-18T02:51:34.688Z,0.00
2018-03-18T02:52:34.657Z,0.00
2018-03-18T02:54:27.559Z,0.00
2018-03-18T02:55:27.544Z,0.00
2018-03-18T02:57:20.496Z,0.00
2018-03-18T02:58:20.469Z,0.00
2018-03-18T03:00:13.368Z,0.00
2018-03-18T03:01:13.352Z,0.00
2018-03-18T03:03:06.344Z,0.00
2018-03-18T03:04:06.330Z,0.00
2018-03-18T03:05:59.783Z,0.00
2018-03-18T03:06:59.258Z,0.00
2018-03-18T03:08:52.228Z,0.00
2018-03-18T03:09:52.172Z,0.00
2018-03-18T03:11:45.101Z,0.00
2018-03-18T03:12:45.073Z,0.00
2018-03-18T03:14:38.037Z,0.00
2018-03-18T03:15:38.006Z,0.00
2018-03-18T03:17:30.963Z,0.00
2018-03-18T03:18:30.939Z,0.00
2018-03-18T03:20:23.947Z,0.00
2018-03-18T03:21:23.924Z,0.00
2018-03-18T03:23:16.873Z,0.00
2018-03-18T03:24:16.841Z,0.00
2018-03-18T03:26:09.802Z,0.00
2018-03-18T03:27:09.763Z,0.00
2018-03-18T03:29:02.715Z,0.00
2018-03-18T03:30:02.715Z,0.00
2018-03-18T03:31:55.639Z,0.00
2018-03-18T03:32:55.603Z,0.00
2018-03-18T03:34:48.495Z,0.00
2018-03-18T03:35:48.508Z,0.00
2018-03-18T03:37:41.393Z,0.00
2018-03-18T03:38:41.362Z,0.00
2018-03-18T03:40:34.309Z,0.00
2018-03-18T03:41:34.296Z,0.00
2018-03-18T03:43:27.249Z,0.00
2018-03-18T03:44:27.207Z,0.00
2018-03-18T03:46:20.132Z,0.00
2018-03-18T03:47:20.104Z,0.00
2018-03-18T03:49:13.082Z,0.00
2018-03-18T03:50:13.061Z,0.00
2018-03-18T03:52:06.005Z,0.00
2018-03-18T03:53:05.983Z,0.00
2018-03-18T03:54:58.881Z,0.00
2018-03-18T03:55:58.865Z,0.00
2018-03-18T03:57:51.826Z,0.00
2018-03-18T03:58:51.789Z,0.00
2018-03-18T04:00:44.718Z,0.00
2018-03-18T04:01:44.701Z,0.00
2018-03-18T04:03:37.639Z,0.00
2018-03-18T04:04:37.604Z,0.00
2018-03-18T04:06:30.501Z,0.00
2018-03-18T04:07:30.473Z,0.00
2018-03-18T04:09:23.450Z,0.00
2018-03-18T04:10:23.433Z,0.00
2018-03-18T04:12:16.378Z,0.00
2018-03-18T04:13:16.344Z,0.00
2018-03-18T04:15:09.250Z,0.00
2018-03-18T04:16:09.229Z,0.00
2018-03-18T04:18:02.154Z,0.00
2018-03-18T04:19:02.109Z,0.00
2018-03-18T04:20:55.070Z,0.00
2018-03-18T04:21:55.017Z,0.00
2018-03-18T04:23:47.924Z,0.00
2018-03-18T04:24:47.891Z,0.00
2018-03-18T04:26:40.844Z,0.00
2018-03-18T04:27:40.812Z,0.00
2018-03-18T04:29:33.744Z,0.00
2018-03-18T04:30:33.723Z,0.00
2018-03-18T04:32:26.673Z,0.00
2018-03-18T04:33:26.637Z,0.00
2018-03-18T04:35:19.568Z,0.00
2018-03-18T04:36:19.524Z,0.00
2018-03-18T04:38:12.453Z,0.00
2018-03-18T04:39:12.428Z,0.00
2018-03-18T04:41:05.418Z,0.00
2018-03-18T04:42:05.398Z,0.00
2018-03-18T04:43:58.289Z,0.00
2018-03-18T04:44:58.264Z,0.00
2018-03-18T04:46:51.244Z,0.00
2018-03-18T04:47:51.221Z,0.00
2018-03-18T04:49:44.143Z,0.00
2018-03-18T04:50:44.149Z,0.00
2018-03-18T04:52:37.082Z,0.00
2018-03-18T04:53:37.054Z,0.00
2018-03-18T04:55:29.948Z,0.00
2018-03-18T04:56:29.933Z,0.00
2018-03-18T04:58:22.865Z,0.00
2018-03-18T04:59:22.825Z,0.00
2018-03-18T05:01:15.717Z,0.00
2018-03-18T05:02:15.683Z,0.00
2018-03-18T05:04:08.680Z,0.00
2018-03-18T05:05:08.630Z,0.00
2018-03-18T05:07:01.580Z,0.00
2018-03-18T05:08:01.495Z,4.00
2018-03-18T05:09:54.416Z,4.00
2018-03-18T05:10:54.409Z,4.00
2018-03-18T05:12:47.325Z,4.00
2018-03-18T05:13:47.300Z,8.00
2018-03-18T05:15:40.261Z,12.00
2018-03-18T05:16:40.247Z,12.00
2018-03-18T05:18:33.177Z,16.00
2018-03-18T05:19:33.157Z,16.00
2018-03-18T05:21:26.084Z,24.00
2018-03-18T05:22:26.069Z,24.00
2018-03-18T05:24:19.977Z,28.00
2018-03-18T05:25:19.943Z,32.00
2018-03-18T05:27:12.918Z,40.00
2018-03-18T05:28:12.862Z,44.00
2018-03-18T05:30:05.822Z,56.00
2018-03-18T05:31:05.809Z,68.00
2018-03-18T05:32:58.721Z,80.00
2018-03-18T05:33:58.677Z,84.00
2018-03-18T05:35:51.566Z,92.00
2018-03-18T05:36:51.548Z,100.00
2018-03-18T05:38:44.543Z,120.00
2018-03-18T05:39:44.644Z,132.00
2018-03-18T05:41:37.490Z,164.00
2018-03-18T05:42:37.467Z,176.00
2018-03-18T05:44:30.463Z,200.00
2018-03-18T05:45:30.432Z,208.00
2018-03-18T05:47:23.343Z,236.00
2018-03-18T05:48:23.313Z,256.00
2018-03-18T05:50:16.327Z,296.00
2018-03-18T05:51:16.303Z,320.00
2018-03-18T05:53:09.204Z,372.00
2018-03-18T05:54:09.169Z,400.00
2018-03-18T05:56:02.096Z,452.00
2018-03-18T05:57:02.082Z,468.00
2018-03-18T05:58:54.988Z,500.00
2018-03-18T05:59:54.965Z,520.00
2018-03-18T06:01:47.978Z,568.00
2018-03-18T06:02:47.906Z,596.00
2018-03-18T06:04:40.866Z,616.00
2018-03-18T06:05:40.858Z,632.00
2018-03-18T06:07:33.757Z,696.00
2018-03-18T06:08:33.732Z,736.00
2018-03-18T06:10:26.690Z,812.00
2018-03-18T06:11:26.669Z,840.00
2018-03-18T06:13:19.585Z,912.00
2018-03-18T06:14:19.558Z,980.00
2018-03-18T06:16:12.489Z,1084.00
2018-03-18T06:17:12.473Z,1128.00
2018-03-18T06:19:05.355Z,1176.00
2018-03-18T06:20:05.325Z,1204.00
2018-03-18T06:21:58.316Z,1292.00
2018-03-18T06:22:58.420Z,1324.00
2018-03-18T06:24:51.203Z,1388.00
2018-03-18T06:25:51.171Z,1404.00
2018-03-18T06:27:44.106Z,1476.00
2018-03-18T06:28:44.071Z,1484.00
2018-03-18T06:30:36.959Z,1508.00
2018-03-18T06:31:36.939Z,1544.00
2018-03-18T06:33:29.927Z,1604.00
2018-03-18T06:34:29.902Z,1636.00
2018-03-18T06:36:22.802Z,1632.00
2018-03-18T06:37:22.782Z,1644.00
2018-03-18T06:39:15.690Z,1712.00
2018-03-18T06:40:15.689Z,1744.00
2018-03-18T06:42:08.610Z,1872.00
2018-03-18T06:43:08.588Z,1852.00
2018-03-18T06:45:01.534Z,1844.00
2018-03-18T06:46:01.507Z,1848.00
2018-03-18T06:47:54.508Z,1916.00
2018-03-18T06:48:54.484Z,2000.00
2018-03-18T06:50:47.425Z,2184.00
2018-03-18T06:51:47.433Z,2240.00
2018-03-18T06:53:40.365Z,2308.00
2018-03-18T06:54:40.345Z,2320.00
2018-03-18T06:56:33.302Z,2296.00
2018-03-18T06:57:33.308Z,2268.00
2018-03-18T06:59:26.198Z,2300.00
2018-03-18T07:00:26.176Z,2296.00
2018-03-18T07:02:19.118Z,2332.00
2018-03-18T07:03:19.122Z,2328.00
2018-03-18T07:05:12.057Z,2392.00
2018-03-18T07:06:12.024Z,2424.00
2018-03-18T07:08:04.990Z,2472.00
2018-03-18T07:09:04.930Z,2460.00
2018-03-18T07:10:57.840Z,2352.00
2018-03-18T07:11:57.830Z,2336.00
2018-03-18T07:13:50.741Z,2344.00
2018-03-18T07:14:50.736Z,2388.00
2018-03-18T07:16:43.610Z,2540.00
2018-03-18T07:17:43.591Z,2580.00
2018-03-18T07:19:36.546Z,2832.00
2018-03-18T07:20:36.526Z,2924.00
2018-03-18T07:22:29.417Z,3004.00
2018-03-18T07:23:29.392Z,3004.00
2018-03-18T07:25:22.391Z,3024.00
2018-03-18T07:26:22.324Z,3104.00
2018-03-18T07:28:15.270Z,3268.00
2018-03-18T07:29:15.211Z,3412.00
2018-03-18T07:31:09.131Z,3696.00
2018-03-18T07:32:09.115Z,3768.00
2018-03-18T07:34:02.114Z,4000.00
2018-03-18T07:35:02.066Z,4048.00
2018-03-18T07:36:54.976Z,4172.00
2018-03-18T07:37:54.944Z,4168.00
2018-03-18T07:39:47.898Z,4108.00
2018-03-18T07:40:47.865Z,4088.00
2018-03-18T07:42:40.762Z,4244.00
2018-03-18T07:43:40.761Z,4468.00
2018-03-18T07:45:33.665Z,4820.00
2018-03-18T07:46:33.643Z,5036.00
2018-03-18T07:48:26.613Z,5056.00
2018-03-18T07:49:26.582Z,4900.00
2018-03-18T07:51:19.556Z,4984.00
2018-03-18T07:52:19.585Z,4976.00
2018-03-18T07:54:12.427Z,5004.00
2018-03-18T07:55:12.416Z,4864.00
2018-03-18T07:57:05.309Z,4940.00
2018-03-18T07:58:05.309Z,5016.00
2018-03-18T07:59:58.208Z,5276.00
2018-03-18T08:00:58.180Z,5216.00
2018-03-18T08:02:51.140Z,5168.00
2018-03-18T08:03:51.114Z,5176.00
2018-03-18T08:05:44.151Z,4944.00
2018-03-18T08:06:44.052Z,5016.00
2018-03-18T08:08:37.003Z,4756.00
2018-03-18T08:09:36.970Z,4860.00
2018-03-18T08:11:29.887Z,5044.00
2018-03-18T08:12:29.859Z,5016.00
2018-03-18T08:14:22.794Z,5252.00
2018-03-18T08:15:22.770Z,5596.00
2018-03-18T08:17:15.650Z,6160.00
2018-03-18T08:18:15.632Z,6312.00
2018-03-18T08:20:08.546Z,6680.00
2018-03-18T08:21:08.521Z,6816.00
2018-03-18T08:23:01.440Z,7268.00
2018-03-18T08:24:01.415Z,7644.00
2018-03-18T08:25:54.332Z,7972.00
2018-03-18T08:26:54.293Z,8020.00
2018-03-18T08:28:47.208Z,7952.00
2018-03-18T08:29:47.171Z,7984.00
2018-03-18T08:31:40.112Z,7828.00
2018-03-18T08:32:40.082Z,7624.00
2018-03-18T08:34:32.971Z,7808.00
2018-03-18T08:35:32.945Z,7604.00
2018-03-18T08:37:25.845Z,7460.00
2018-03-18T08:38:25.841Z,7268.00
2018-03-18T08:40:18.746Z,7036.00
2018-03-18T08:41:18.792Z,6900.00
2018-03-18T08:43:11.612Z,6852.00
2018-03-18T08:44:11.589Z,6772.00
2018-03-18T08:46:04.497Z,6420.00
2018-03-18T08:47:04.470Z,6516.00
2018-03-18T08:48:57.415Z,6752.00
2018-03-18T08:49:57.336Z,6644.00
2018-03-18T08:51:50.766Z,7260.00
2018-03-18T08:52:50.734Z,7424.00
2018-03-18T08:54:43.631Z,8176.00
2018-03-18T08:55:43.591Z,8424.00
2018-03-18T08:57:36.547Z,8740.00
2018-03-18T08:58:36.504Z,8984.00
2018-03-18T09:00:29.443Z,8828.00
2018-03-18T09:01:29.415Z,9280.00
2018-03-18T09:03:22.297Z,9384.00
2018-03-18T09:04:22.276Z,9396.00
2018-03-18T09:06:15.204Z,8468.00
2018-03-18T09:07:15.174Z,8428.00
2018-03-18T09:09:08.063Z,8496.00
2018-03-18T09:10:08.038Z,8792.00
2018-03-18T09:12:00.954Z,9444.00
2018-03-18T09:13:00.931Z,9380.00
2018-03-18T09:14:54.411Z,9192.00
2018-03-18T09:15:53.792Z,9544.00
2018-03-18T09:17:46.689Z,10580.00
2018-03-18T09:18:46.647Z,11020.00
2018-03-18T09:20:39.582Z,11060.00
2018-03-18T09:21:39.521Z,11204.00
2018-03-18T09:23:32.430Z,11128.00
2018-03-18T09:24:32.399Z,11136.00
2018-03-18T09:26:25.300Z,11224.00
2018-03-18T09:27:25.265Z,11732.00
2018-03-18T09:29:18.149Z,12376.00
2018-03-18T09:30:18.154Z,12996.00
2018-03-18T09:32:11.066Z,13204.00
2018-03-18T09:33:11.036Z,13372.00
2018-03-18T09:35:03.947Z,12568.00
2018-03-18T09:36:03.910Z,12436.00
2018-03-18T09:37:56.808Z,12736.00
2018-03-18T09:38:56.782Z,12920.00
2018-03-18T09:40:49.719Z,13288.00
2018-03-18T09:41:49.701Z,13148.00
2018-03-18T09:43:42.637Z,12960.00
2018-03-18T09:44:42.614Z,12980.00
2018-03-18T09:46:35.568Z,13332.00
2018-03-18T09:47:35.506Z,12728.00
2018-03-18T09:49:28.432Z,12820.00
2018-03-18T09:50:28.415Z,13120.00
2018-03-18T09:52:21.441Z,12956.00
2018-03-18T09:53:21.419Z,12948.00
2018-03-18T09:55:14.225Z,12832.00
2018-03-18T09:56:14.221Z,12612.00
2018-03-18T09:58:07.155Z,12680.00
2018-03-18T09:59:07.119Z,13172.00
2018-03-18T10:01:00.016Z,15432.00
2018-03-18T10:02:00.002Z,15516.00
2018-03-18T10:03:52.912Z,15668.00
2018-03-18T10:04:52.891Z,16484.00
2018-03-18T10:06:45.779Z,19456.00
2018-03-18T10:07:45.756Z,19168.00
2018-03-18T10:09:38.673Z,22016.00
2018-03-18T10:10:38.620Z,21472.00
2018-03-18T10:12:31.554Z,20832.00
2018-03-18T10:13:31.522Z,19936.00
2018-03-18T10:15:24.414Z,20448.00
2018-03-18T10:16:24.400Z,20800.00
2018-03-18T10:18:17.313Z,20864.00
2018-03-18T10:19:17.291Z,19488.00
2018-03-18T10:21:10.188Z,20064.00
2018-03-18T10:22:10.169Z,20896.00
2018-03-18T10:24:03.086Z,20512.00
2018-03-18T10:25:03.101Z,19392.00
2018-03-18T10:26:55.972Z,19584.00
2018-03-18T10:27:55.943Z,18272.00
2018-03-18T10:29:48.839Z,17952.00
2018-03-18T10:30:48.819Z,17472.00
2018-03-18T10:32:41.749Z,17792.00
2018-03-18T10:33:41.703Z,16736.00
2018-03-18T10:35:34.609Z,17824.00
2018-03-18T10:36:34.608Z,17984.00
2018-03-18T10:38:27.512Z,18208.00
2018-03-18T10:39:27.487Z,18368.00
2018-03-18T10:41:20.388Z,18656.00
2018-03-18T10:42:20.372Z,18656.00
2018-03-18T10:44:13.296Z,19040.00
2018-03-18T10:45:13.270Z,19328.00
2018-03-18T10:47:06.205Z,19200.00
2018-03-18T10:48:06.164Z,19392.00
2018-03-18T10:49:59.077Z,19232.00
2018-03-18T10:50:59.058Z,20064.00
2018-03-18T10:52:51.971Z,18912.00
2018-03-18T10:53:51.952Z,19168.00
2018-03-18T10:55:44.930Z,20832.00
2018-03-18T10:56:44.879Z,22528.00
2018-03-18T10:58:37.798Z,24288.00
2018-03-18T10:59:37.760Z,26016.00
2018-03-18T11:01:30.704Z,24832.00
2018-03-18T11:02:30.691Z,24320.00
2018-03-18T11:04:23.602Z,25440.00
2018-03-18T11:05:23.588Z,26112.00
2018-03-18T11:07:16.516Z,26912.00
2018-03-18T11:08:16.488Z,24896.00
2018-03-18T11:10:09.463Z,25472.00
2018-03-18T11:11:09.443Z,25888.00
2018-03-18T11:13:02.385Z,24128.00
2018-03-18T11:14:02.368Z,24384.00
2018-03-18T11:15:55.307Z,27296.00
2018-03-18T11:16:55.294Z,27488.00
2018-03-18T11:18:48.232Z,28576.00
2018-03-18T11:19:48.204Z,29408.00
2018-03-18T11:21:41.184Z,25856.00
2018-03-18T11:22:41.170Z,27488.00
2018-03-18T11:24:34.144Z,27680.00
2018-03-18T11:25:34.120Z,27968.00
2018-03-18T11:26:34.112Z,29568.00
2018-03-18T11:27:34.124Z,27712.00
2018-03-18T11:28:34.118Z,28128.00
2018-03-18T11:29:34.171Z,27200.00
2018-03-18T11:30:34.156Z,27520.00
2018-03-18T11:31:34.146Z,27968.00
2018-03-18T11:32:34.086Z,29632.00
2018-03-18T11:33:34.080Z,30464.00
2018-03-18T11:34:34.083Z,32480.00
2018-03-18T11:35:34.081Z,32384.00
2018-03-18T11:36:34.076Z,31232.00
2018-03-18T11:37:34.072Z,32608.00
2018-03-18T11:38:34.064Z,32448.00
2018-03-18T11:39:34.055Z,33248.00
2018-03-18T11:40:34.057Z,35296.00
2018-03-18T11:41:34.048Z,34976.00
2018-03-18T11:42:34.054Z,35136.00
2018-03-18T11:43:34.074Z,34176.00
2018-03-18T11:44:34.049Z,32256.00
2018-03-18T11:45:34.029Z,30624.00
2018-03-18T11:46:34.025Z,30848.00
2018-03-18T11:47:34.021Z,29472.00
2018-03-18T11:48:34.020Z,28032.00
2018-03-18T11:49:34.113Z,27328.00
2018-03-18T11:50:34.014Z,27104.00
2018-03-18T11:51:34.009Z,26848.00
2018-03-18T11:52:34.072Z,26368.00
2018-03-18T11:53:33.997Z,25376.00
2018-03-18T11:54:33.992Z,24416.00
2018-03-18T11:55:34.028Z,23552.00
2018-03-18T11:56:33.984Z,22880.00
2018-03-18T11:57:34.003Z,22880.00
2018-03-18T11:58:33.982Z,23808.00
2018-03-18T11:59:33.969Z,24352.00
2018-03-18T12:00:33.962Z,25280.00
2018-03-18T12:01:33.983Z,25280.00
2018-03-18T12:02:33.966Z,26688.00
2018-03-18T12:03:33.952Z,29088.00
2018-03-18T12:04:33.934Z,29984.00
2018-03-18T12:05:33.990Z,30560.00
2018-03-18T12:06:33.926Z,30176.00
2018-03-18T12:07:33.929Z,29920.00
2018-03-18T12:08:33.933Z,29728.00
2018-03-18T12:09:33.921Z,28896.00
2018-03-18T12:10:33.906Z,29632.00
2018-03-18T12:11:33.899Z,28288.00
2018-03-18T12:12:33.896Z,27808.00
2018-03-18T12:13:33.904Z,26752.00
2018-03-18T12:14:33.883Z,25664.00
2018-03-18T12:15:33.875Z,26048.00
2018-03-18T12:16:33.869Z,26464.00
2018-03-18T12:17:33.872Z,26912.00
2018-03-18T12:18:33.865Z,26048.00
2018-03-18T12:19:33.854Z,26368.00
2018-03-18T12:20:33.851Z,25856.00
2018-03-18T12:21:33.851Z,24288.00
2018-03-18T12:22:33.845Z,24640.00
2018-03-18T12:23:33.833Z,23296.00
2018-03-18T12:24:33.830Z,22336.00
2018-03-18T12:25:33.819Z,22368.00
2018-03-18T12:26:33.816Z,23104.00
2018-03-18T12:27:33.818Z,23104.00
2018-03-18T12:28:33.841Z,23328.00
2018-03-18T12:29:33.794Z,23872.00
2018-03-18T12:30:33.844Z,25216.00
2018-03-18T12:31:33.797Z,26048.00
2018-03-18T12:32:33.781Z,26304.00
2018-03-18T12:33:33.772Z,26720.00
2018-03-18T12:34:33.763Z,26112.00
2018-03-18T12:35:33.755Z,26880.00
2018-03-18T12:36:33.750Z,27136.00
2018-03-18T12:37:33.745Z,27136.00
2018-03-18T12:38:33.739Z,27136.00
2018-03-18T12:39:33.729Z,27744.00
2018-03-18T12:40:33.728Z,27584.00
2018-03-18T12:41:33.726Z,24928.00
2018-03-18T12:42:33.728Z,24416.00
2018-03-18T12:43:33.715Z,24320.00
2018-03-18T12:44:33.701Z,24448.00
2018-03-18T12:45:33.697Z,24800.00
2018-03-18T12:46:33.694Z,25504.00
2018-03-18T12:47:33.687Z,26432.00
2018-03-18T12:48:33.681Z,26432.00
2018-03-18T12:49:33.671Z,26496.00
2018-03-18T12:50:33.663Z,26432.00
2018-03-18T12:51:33.657Z,27808.00
2018-03-18T12:52:33.653Z,28032.00
2018-03-18T12:53:33.645Z,27072.00
2018-03-18T12:54:33.643Z,26560.00
2018-03-18T12:55:33.632Z,26208.00
2018-03-18T12:56:33.635Z,25472.00
2018-03-18T12:57:33.626Z,24128.00
2018-03-18T12:58:33.612Z,22816.00
2018-03-18T12:59:33.611Z,22208.00
2018-03-18T13:00:33.602Z,21888.00
2018-03-18T13:01:33.590Z,21344.00
2018-03-18T13:02:33.588Z,20640.00
2018-03-18T13:03:33.580Z,20416.00
2018-03-18T13:04:33.592Z,20064.00
2018-03-18T13:05:33.570Z,20352.00
2018-03-18T13:06:33.581Z,21088.00
2018-03-18T13:07:33.557Z,21312.00
2018-03-18T13:08:33.560Z,21376.00
2018-03-18T13:09:33.543Z,21504.00
2018-03-18T13:10:33.541Z,22464.00
2018-03-18T13:11:33.552Z,22304.00
2018-03-18T13:12:33.536Z,21824.00
2018-03-18T13:13:33.519Z,21856.00
2018-03-18T13:14:33.508Z,21568.00
2018-03-18T13:15:33.503Z,21344.00
2018-03-18T13:16:33.492Z,20256.00
2018-03-18T13:17:33.503Z,19552.00
2018-03-18T13:18:33.484Z,19296.00
2018-03-18T13:19:33.478Z,19328.00
2018-03-18T13:20:33.464Z,18816.00
2018-03-18T13:21:33.459Z,19776.00
2018-03-18T13:22:33.463Z,20352.00
2018-03-18T13:23:33.443Z,20032.00
2018-03-18T13:24:33.437Z,19552.00
2018-03-18T13:25:33.442Z,19040.00
2018-03-18T13:26:33.427Z,18368.00
2018-03-18T13:27:33.415Z,18208.00
2018-03-18T13:28:33.414Z,18528.00
2018-03-18T13:29:33.398Z,18752.00
2018-03-18T13:30:33.396Z,19552.00
2018-03-18T13:31:33.382Z,19520.00
2018-03-18T13:32:33.380Z,19584.00
2018-03-18T13:33:33.379Z,19648.00
2018-03-18T13:34:33.363Z,19584.00
2018-03-18T13:35:33.353Z,19648.00
2018-03-18T13:36:33.346Z,19424.00
2018-03-18T13:37:33.341Z,19136.00
2018-03-18T13:38:33.330Z,19168.00
2018-03-18T13:39:33.323Z,19008.00
2018-03-18T13:40:33.319Z,18464.00
2018-03-18T13:41:33.307Z,18496.00
2018-03-18T13:42:33.291Z,19072.00
2018-03-18T13:43:33.295Z,18496.00
2018-03-18T13:44:33.284Z,19136.00
2018-03-18T13:45:33.276Z,20384.00
2018-03-18T13:46:33.271Z,21024.00
2018-03-18T13:47:33.263Z,21760.00
2018-03-18T13:48:33.271Z,22080.00
2018-03-18T13:49:33.244Z,22432.00
2018-03-18T13:50:33.245Z,22560.00
2018-03-18T13:51:33.232Z,22240.00
2018-03-18T13:52:33.244Z,20896.00
2018-03-18T13:53:33.277Z,20128.00
2018-03-18T13:54:33.256Z,20128.00
2018-03-18T13:55:33.189Z,20448.00
2018-03-18T13:56:33.198Z,20640.00
2018-03-18T13:57:33.200Z,20800.00
2018-03-18T13:58:33.182Z,20864.00
2018-03-18T13:59:33.175Z,21216.00
2018-03-18T14:00:33.167Z,20736.00
2018-03-18T14:01:33.164Z,20832.00
2018-03-18T14:02:33.155Z,20960.00
2018-03-18T14:03:33.142Z,20832.00
2018-03-18T14:04:33.136Z,20576.00
2018-03-18T14:05:33.159Z,20672.00
2018-03-18T14:06:33.125Z,20448.00
2018-03-18T14:07:33.112Z,20064.00
2018-03-18T14:08:33.107Z,20320.00
2018-03-18T14:09:33.109Z,19872.00
2018-03-18T14:10:33.093Z,19872.00
2018-03-18T14:11:33.085Z,19968.00
2018-03-18T14:12:33.110Z,20320.00
2018-03-18T14:13:33.078Z,20672.00
2018-03-18T14:14:33.062Z,20576.00
2018-03-18T14:15:33.051Z,21120.00
2018-03-18T14:16:33.045Z,21504.00
2018-03-18T14:17:33.048Z,21664.00
2018-03-18T14:18:33.111Z,21536.00
2018-03-18T14:19:33.024Z,21152.00
2018-03-18T14:20:33.018Z,20896.00
2018-03-18T14:21:32.999Z,20224.00
2018-03-18T14:22:33.106Z,19776.00
2018-03-18T14:23:32.997Z,19648.00
2018-03-18T14:24:32.989Z,19360.00
2018-03-18T14:25:32.971Z,19424.00
2018-03-18T14:26:32.973Z,19136.00
2018-03-18T14:27:32.995Z,18976.00
2018-03-18T14:28:32.969Z,18624.00
2018-03-18T14:29:32.952Z,18784.00
2018-03-18T14:30:32.944Z,18752.00
2018-03-18T14:31:32.954Z,18304.00
2018-03-18T14:32:32.925Z,18048.00
2018-03-18T14:33:32.938Z,17400.00
2018-03-18T14:34:32.909Z,17100.00
2018-03-18T14:35:32.908Z,16904.00
2018-03-18T14:36:32.896Z,16672.00
2018-03-18T14:37:32.910Z,16468.00
2018-03-18T14:38:32.885Z,16140.00
2018-03-18T14:39:32.878Z,15808.00
2018-03-18T14:40:32.867Z,15464.00
2018-03-18T14:41:32.856Z,14952.00
2018-03-18T14:42:32.840Z,14724.00
2018-03-18T14:43:32.839Z,14440.00
2018-03-18T14:44:32.830Z,14068.00
2018-03-18T14:45:32.821Z,13720.00
2018-03-18T14:46:32.819Z,13444.00
2018-03-18T14:47:32.809Z,13216.00
2018-03-18T14:48:32.803Z,12796.00
2018-03-18T14:49:32.787Z,12520.00
2018-03-18T14:50:32.790Z,11976.00
2018-03-18T14:51:32.776Z,11704.00
2018-03-18T14:52:32.777Z,11704.00
2018-03-18T14:53:32.753Z,11404.00
2018-03-18T14:54:32.745Z,11360.00
2018-03-18T14:55:32.738Z,11464.00
2018-03-18T14:56:32.733Z,11584.00
2018-03-18T14:57:32.725Z,11484.00
2018-03-18T14:58:32.714Z,11068.00
2018-03-18T14:59:32.701Z,10884.00
2018-03-18T15:00:32.692Z,10668.00
2018-03-18T15:01:32.776Z,10420.00
2018-03-18T15:02:32.677Z,10252.00
2018-03-18T15:03:32.669Z,10276.00
2018-03-18T15:04:32.651Z,10216.00
2018-03-18T15:05:32.648Z,10356.00
2018-03-18T15:06:32.663Z,10136.00
2018-03-18T15:07:32.626Z,10220.00
2018-03-18T15:08:32.612Z,10052.00
2018-03-18T15:09:32.608Z,10224.00
2018-03-18T15:10:32.642Z,10376.00
2018-03-18T15:11:32.592Z,10580.00
2018-03-18T15:12:32.581Z,10676.00
2018-03-18T15:13:32.576Z,10688.00
2018-03-18T15:14:32.609Z,10476.00
2018-03-18T15:15:32.555Z,10356.00
2018-03-18T15:16:32.547Z,10428.00
2018-03-18T15:17:32.531Z,10312.00
2018-03-18T15:18:32.520Z,10116.00
2018-03-18T15:19:32.521Z,10040.00
2018-03-18T15:20:32.504Z,10060.00
2018-03-18T15:21:32.495Z,9852.00
2018-03-18T15:22:32.482Z,9740.00
2018-03-18T15:23:32.481Z,9460.00
2018-03-18T15:24:32.462Z,9268.00
2018-03-18T15:25:32.451Z,9052.00
2018-03-18T15:26:32.455Z,9084.00
2018-03-18T15:27:32.434Z,8892.00
2018-03-18T15:28:32.428Z,8496.00
2018-03-18T15:29:32.410Z,8312.00
2018-03-18T15:30:32.430Z,8552.00
2018-03-18T15:31:32.393Z,8560.00
2018-03-18T15:32:32.398Z,8772.00
2018-03-18T15:33:32.376Z,8780.00
2018-03-18T15:34:32.362Z,8624.00
2018-03-18T15:35:32.350Z,8184.00
2018-03-18T15:36:32.344Z,8000.00
2018-03-18T15:37:32.338Z,8004.00
2018-03-18T15:38:32.322Z,7592.00
2018-03-18T15:39:32.311Z,7592.00
2018-03-18T15:40:32.300Z,7244.00